createdAt,value
2018-07-26T00:01:32.471Z,329.30
2018-07-26T00:03:59.696Z,336.00
2018-07-26T00:06:26.906Z,341.87
2018-07-26T00:08:54.126Z,342.73
2018-07-26T00:11:21.329Z,354.17
2018-07-26T00:13:48.528Z,352.33
2018-07-26T00:16:15.735Z,339.70
2018-07-26T00:18:42.929Z,330.27
2018-07-26T00:21:10.134Z,329.50
2018-07-26T00:23:37.375Z,334.93
2018-07-26T00:26:04.920Z,347.47
2018-07-26T00:28:32.249Z,345.93
2018-07-26T00:30:59.432Z,351.00
2018-07-26T00:33:26.616Z,344.57
2018-07-26T00:35:54.095Z,322.30
2018-07-26T00:38:21.284Z,328.67
2018-07-26T00:40:48.485Z,332.60
2018-07-26T00:43:15.688Z,320.70
2018-07-26T00:45:42.899Z,319.97
2018-07-26T00:48:10.089Z,307.53
2018-07-26T00:50:37.293Z,315.70
2018-07-26T00:53:04.504Z,312.80
2018-07-26T00:55:31.707Z,316.10
2018-07-26T00:57:58.988Z,333.77
2018-07-26T01:00:26.195Z,338.07
2018-07-26T01:02:53.383Z,329.17
2018-07-26T01:05:20.571Z,308.10
2018-07-26T01:07:47.919Z,333.90
2018-07-26T01:10:15.153Z,310.50
2018-07-26T01:12:42.554Z,303.93
2018-07-26T01:15:09.758Z,335.50
2018-07-26T01:17:36.987Z,302.40
2018-07-26T01:20:04.728Z,310.87
2018-07-26T01:22:31.933Z,308.00
2018-07-26T01:24:59.141Z,328.87
2018-07-26T01:27:26.329Z,310.03
2018-07-26T01:29:53.547Z,314.40
2018-07-26T01:32:20.739Z,304.90
2018-07-26T01:34:47.946Z,310.00
2018-07-26T01:37:15.150Z,318.83
2018-07-26T01:39:42.335Z,323.57
2018-07-26T01:42:09.538Z,318.40
2018-07-26T01:44:36.774Z,356.33
2018-07-26T01:47:04.081Z,330.27
2018-07-26T01:49:31.283Z,303.43
2018-07-26T01:51:58.491Z,317.60
2018-07-26T01:54:25.831Z,318.87
2018-07-26T01:56:53.016Z,300.43
2018-07-26T01:59:20.234Z,319.87
2018-07-26T02:01:47.457Z,306.80
2018-07-26T02:04:14.663Z,309.20
2018-07-26T02:06:41.865Z,319.27
2018-07-26T02:09:09.959Z,318.23
2018-07-26T02:11:37.198Z,321.23
2018-07-26T02:14:04.486Z,286.57
2018-07-26T02:16:31.659Z,285.03
2018-07-26T02:18:58.855Z,281.23
2018-07-26T02:21:26.109Z,296.63
2018-07-26T02:23:53.308Z,308.90
2018-07-26T02:26:20.506Z,294.17
2018-07-26T02:28:47.716Z,283.07
2018-07-26T02:31:14.911Z,291.90
2018-07-26T02:33:42.114Z,318.47
2018-07-26T02:36:09.311Z,289.67
2018-07-26T02:38:36.526Z,323.27
2018-07-26T02:41:03.756Z,304.00
2018-07-26T02:43:30.973Z,291.70
2018-07-26T02:45:58.188Z,285.67
2018-07-26T02:48:25.426Z,317.03
2018-07-26T02:50:52.676Z,275.67
2018-07-26T02:53:19.941Z,289.00
2018-07-26T02:55:47.150Z,272.53
2018-07-26T02:58:14.359Z,280.80
2018-07-26T03:00:41.562Z,287.30
2018-07-26T03:03:08.760Z,284.67
2018-07-26T03:05:35.954Z,287.00
2018-07-26T03:08:03.189Z,280.07
2018-07-26T03:10:30.402Z,270.83
2018-07-26T03:12:57.617Z,278.10
2018-07-26T03:15:24.824Z,271.13
2018-07-26T03:17:52.036Z,292.50
2018-07-26T03:20:19.238Z,276.67
2018-07-26T03:22:46.441Z,267.50
2018-07-26T03:25:13.651Z,257.10
2018-07-26T03:27:40.847Z,267.20
2018-07-26T03:30:08.253Z,271.27
2018-07-26T03:32:35.631Z,264.63
2018-07-26T03:35:02.865Z,272.57
2018-07-26T03:37:30.063Z,260.07
2018-07-26T03:39:57.259Z,265.23
2018-07-26T03:42:24.491Z,273.37
2018-07-26T03:44:51.683Z,271.93
2018-07-26T03:47:18.903Z,261.90
2018-07-26T03:49:46.104Z,263.77
2018-07-26T03:52:13.335Z,263.20
2018-07-26T03:54:40.544Z,289.53
2018-07-26T03:57:07.752Z,276.20
2018-07-26T03:59:34.947Z,316.10
2018-07-26T04:02:02.184Z,294.77
2018-07-26T04:04:29.386Z,263.80
2018-07-26T04:06:56.567Z,292.57
2018-07-26T04:09:23.820Z,280.20
2018-07-26T04:11:51.017Z,289.83
2018-07-26T04:14:18.226Z,265.70
2018-07-26T04:16:45.420Z,263.27
2018-07-26T04:19:12.644Z,264.83
2018-07-26T04:21:40.390Z,285.93
2018-07-26T04:24:07.584Z,273.73
2018-07-26T04:26:35.343Z,263.10
2018-07-26T04:29:02.922Z,287.23
2018-07-26T04:31:30.138Z,267.07
2018-07-26T04:33:57.377Z,266.23
2018-07-26T04:36:24.611Z,269.23
2018-07-26T04:38:51.846Z,261.63
2018-07-26T04:41:19.047Z,268.70
2018-07-26T04:43:46.270Z,264.70
2018-07-26T04:46:13.527Z,262.00
2018-07-26T04:48:40.739Z,272.47
2018-07-26T04:51:07.957Z,264.97
2018-07-26T04:53:35.464Z,273.67
2018-07-26T04:56:02.669Z,265.90
2018-07-26T04:58:30.105Z,268.77
2018-07-26T05:00:57.338Z,287.57
2018-07-26T05:03:25.334Z,269.03
2018-07-26T05:05:52.534Z,300.80
2018-07-26T05:08:19.728Z,280.23
2018-07-26T05:10:46.963Z,268.43
2018-07-26T05:13:14.159Z,271.27
2018-07-26T05:15:41.407Z,272.43
2018-07-26T05:18:09.356Z,286.17
2018-07-26T05:20:36.577Z,286.60
2018-07-26T05:23:04.062Z,283.13
2018-07-26T05:25:31.298Z,301.13
2018-07-26T05:27:58.490Z,283.47
2018-07-26T05:30:25.731Z,290.63
2018-07-26T05:32:52.970Z,291.20
2018-07-26T05:35:20.301Z,297.33
2018-07-26T05:37:47.667Z,304.93
2018-07-26T05:40:15.037Z,289.20
2018-07-26T05:42:42.392Z,314.53
2018-07-26T05:45:09.606Z,308.20
2018-07-26T05:47:36.794Z,296.77
2018-07-26T05:50:04.574Z,291.43
2018-07-26T05:52:31.788Z,324.20
2018-07-26T05:54:59.024Z,304.33
2018-07-26T05:57:26.234Z,307.63
2018-07-26T05:59:53.457Z,331.13
2018-07-26T06:02:20.723Z,296.60
2018-07-26T06:04:48.117Z,314.80
2018-07-26T06:07:15.327Z,306.60
2018-07-26T06:09:42.590Z,322.63
2018-07-26T06:12:09.936Z,308.17
2018-07-26T06:14:37.162Z,324.77
2018-07-26T06:17:04.410Z,330.80
2018-07-26T06:19:31.614Z,316.47
2018-07-26T06:21:58.822Z,340.30
2018-07-26T06:24:26.041Z,319.70
2018-07-26T06:26:53.255Z,327.43
2018-07-26T06:29:20.455Z,323.10
2018-07-26T06:31:47.673Z,355.30
2018-07-26T06:34:14.872Z,331.67
2018-07-26T06:36:42.086Z,362.43
2018-07-26T06:39:10.711Z,333.20
2018-07-26T06:41:37.918Z,343.10
2018-07-26T06:44:05.204Z,365.13
2018-07-26T06:46:32.412Z,358.67
2018-07-26T06:48:59.640Z,351.80
2018-07-26T06:51:26.861Z,374.87
2018-07-26T06:53:54.073Z,351.87
2018-07-26T06:56:21.291Z,386.03
2018-07-26T06:58:48.500Z,379.33
2018-07-26T07:01:16.130Z,390.07
2018-07-26T07:03:43.329Z,419.03
2018-07-26T07:06:10.534Z,467.90
2018-07-26T07:08:37.914Z,526.80
2018-07-26T07:11:05.270Z,581.93
2018-07-26T07:13:32.456Z,601.03
2018-07-26T07:15:59.698Z,636.13
2018-07-26T07:18:26.911Z,636.57
2018-07-26T07:20:54.164Z,676.73
2018-07-26T07:23:21.455Z,682.17
2018-07-26T07:25:48.666Z,724.23
2018-07-26T07:28:15.872Z,750.73
2018-07-26T07:30:43.111Z,752.17
2018-07-26T07:33:10.306Z,729.37
2018-07-26T07:35:37.496Z,770.93
2018-07-26T07:38:04.722Z,800.37
2018-07-26T07:40:31.923Z,785.57
2018-07-26T07:42:59.139Z,781.27
2018-07-26T07:45:26.344Z,770.17
2018-07-26T07:47:53.550Z,810.17
2018-07-26T07:50:20.751Z,793.70
2018-07-26T07:52:48.016Z,795.10
2018-07-26T07:55:15.225Z,812.33
2018-07-26T07:57:42.414Z,842.97
2018-07-26T08:00:09.626Z,812.07
2018-07-26T08:02:36.995Z,812.93
2018-07-26T08:05:04.449Z,805.30
2018-07-26T08:07:31.666Z,828.07
2018-07-26T08:09:58.887Z,802.87
2018-07-26T08:12:26.107Z,831.23
2018-07-26T08:14:53.387Z,830.77
2018-07-26T08:17:20.623Z,798.30
2018-07-26T08:19:47.826Z,826.27
2018-07-26T08:22:15.023Z,852.27
2018-07-26T08:24:42.226Z,835.50
2018-07-26T08:27:09.434Z,822.57
2018-07-26T08:29:36.641Z,822.97
2018-07-26T08:32:03.858Z,823.87
2018-07-26T08:34:31.061Z,829.67
2018-07-26T08:36:58.295Z,824.93
2018-07-26T08:39:25.498Z,837.17
2018-07-26T08:41:52.719Z,855.60
2018-07-26T08:44:20.097Z,851.93
2018-07-26T08:46:47.319Z,837.57
2018-07-26T08:49:14.535Z,824.80
2018-07-26T08:51:41.756Z,818.17
2018-07-26T08:54:09.023Z,824.30
2018-07-26T08:56:36.192Z,844.87
2018-07-26T08:59:03.398Z,811.17
2018-07-26T09:01:30.606Z,848.77
2018-07-26T09:03:57.816Z,825.00
2018-07-26T09:06:25.042Z,841.70
2018-07-26T09:08:52.247Z,828.53
2018-07-26T09:11:19.448Z,823.57
2018-07-26T09:13:46.710Z,830.53
2018-07-26T09:16:13.867Z,832.73
2018-07-26T09:18:41.075Z,838.77
2018-07-26T09:21:08.294Z,831.80
2018-07-26T09:23:35.503Z,823.13
2018-07-26T09:26:02.715Z,819.57
2018-07-26T09:28:29.930Z,855.77
2018-07-26T09:30:57.152Z,828.70
2018-07-26T09:33:24.529Z,843.20
2018-07-26T09:35:51.687Z,849.53
2018-07-26T09:38:18.912Z,868.87
2018-07-26T09:40:46.134Z,842.53
2018-07-26T09:43:13.334Z,843.33
2018-07-26T09:45:40.534Z,817.10
2018-07-26T09:48:07.775Z,856.37
2018-07-26T09:50:35.007Z,864.97
2018-07-26T09:53:02.235Z,837.10
2018-07-26T09:55:29.427Z,831.83
2018-07-26T09:57:56.678Z,835.10
2018-07-26T10:00:29.711Z,857.80
2018-07-26T10:02:56.925Z,840.33
2018-07-26T10:05:24.132Z,828.93
2018-07-26T10:07:51.331Z,860.17
2018-07-26T10:10:18.538Z,831.53
2018-07-26T10:12:45.750Z,846.47
2018-07-26T10:15:12.946Z,866.30
2018-07-26T10:17:40.163Z,858.77
2018-07-26T10:20:07.407Z,863.50
2018-07-26T10:22:34.706Z,852.87
2018-07-26T10:25:01.924Z,857.00
2018-07-26T10:27:29.798Z,848.87
2018-07-26T10:29:56.998Z,851.17
2018-07-26T10:32:24.210Z,833.17
2018-07-26T10:34:51.492Z,864.77
2018-07-26T10:37:18.684Z,829.77
2018-07-26T10:39:46.022Z,868.70
2018-07-26T10:42:13.339Z,822.17
2018-07-26T10:44:40.530Z,803.43
2018-07-26T10:47:07.722Z,776.77
2018-07-26T10:49:34.966Z,786.77
2018-07-26T10:52:02.186Z,793.20
2018-07-26T10:54:29.400Z,794.70
2018-07-26T10:56:56.603Z,823.37
2018-07-26T10:59:23.807Z,825.73
2018-07-26T11:01:51.007Z,797.43
2018-07-26T11:04:18.276Z,822.23
2018-07-26T11:06:45.474Z,820.90
2018-07-26T11:09:12.704Z,812.27
2018-07-26T11:11:39.911Z,847.97
2018-07-26T11:14:07.520Z,834.70
2018-07-26T11:16:34.770Z,852.80
2018-07-26T11:19:02.011Z,820.50
2018-07-26T11:21:29.233Z,823.33
2018-07-26T11:23:56.522Z,820.97
2018-07-26T11:26:23.944Z,813.57
2018-07-26T11:28:51.174Z,821.53
2018-07-26T11:31:18.475Z,820.63
2018-07-26T11:33:45.679Z,810.47
2018-07-26T11:36:12.882Z,835.97
2018-07-26T11:38:40.075Z,823.27
2018-07-26T11:41:07.317Z,832.57
2018-07-26T11:43:34.550Z,815.07
2018-07-26T11:46:01.730Z,803.97
2018-07-26T11:48:28.940Z,817.80
2018-07-26T11:50:56.158Z,820.60
2018-07-26T11:53:23.691Z,833.65
2018-07-26T11:55:50.919Z,819.70
2018-07-26T11:58:18.130Z,834.40
2018-07-26T12:00:45.362Z,835.20
2018-07-26T12:03:12.570Z,800.87
2018-07-26T12:05:39.772Z,797.80
2018-07-26T12:08:07.275Z,820.67
2018-07-26T12:10:34.463Z,793.60
2018-07-26T12:13:01.655Z,798.63
2018-07-26T12:15:28.865Z,797.40
2018-07-26T12:17:56.075Z,783.13
2018-07-26T12:20:23.282Z,791.77
2018-07-26T12:22:50.493Z,848.93
2018-07-26T12:25:17.693Z,844.90
2018-07-26T12:27:44.961Z,842.83
2018-07-26T12:30:12.151Z,818.25
2018-07-26T12:32:39.342Z,860.95
2018-07-26T12:35:06.548Z,835.90
2018-07-26T12:37:33.779Z,834.55
2018-07-26T12:40:01.006Z,853.70
2018-07-26T12:42:28.244Z,845.65
2018-07-26T12:44:55.453Z,858.77
2018-07-26T12:47:22.854Z,854.57
2018-07-26T12:49:50.046Z,884.28
2018-07-26T12:52:19.125Z,860.82
2018-07-26T12:54:46.349Z,835.73
2018-07-26T12:57:13.642Z,836.12
2018-07-26T12:59:40.840Z,856.55
2018-07-26T13:02:08.072Z,863.65
2018-07-26T13:04:35.278Z,832.00
2018-07-26T13:07:02.525Z,858.20
2018-07-26T13:09:29.717Z,851.00
2018-07-26T13:11:56.914Z,844.20
2018-07-26T13:14:24.094Z,842.92
2018-07-26T13:16:51.289Z,834.73
2018-07-26T13:19:18.487Z,816.17
2018-07-26T13:21:45.707Z,819.65
2018-07-26T13:24:12.910Z,811.88
2018-07-26T13:26:40.126Z,818.13
2018-07-26T13:29:07.328Z,819.23
2018-07-26T13:31:34.530Z,785.57
2018-07-26T13:34:01.749Z,808.87
2018-07-26T13:36:28.984Z,827.13
2018-07-26T13:38:56.204Z,812.27
2018-07-26T13:41:23.407Z,842.80
2018-07-26T13:43:50.613Z,808.30
2018-07-26T13:46:17.863Z,783.77
2018-07-26T13:48:45.056Z,809.50
2018-07-26T13:51:12.407Z,813.40
2018-07-26T13:53:39.611Z,809.60
2018-07-26T13:56:06.858Z,808.23
2018-07-26T13:58:34.126Z,854.77
2018-07-26T14:01:01.276Z,828.03
2018-07-26T14:03:28.467Z,807.30
2018-07-26T14:05:55.675Z,807.03
2018-07-26T14:08:23.023Z,825.73
2018-07-26T14:10:50.213Z,788.77
2018-07-26T14:13:17.416Z,811.93
2018-07-26T14:15:44.715Z,837.27
2018-07-26T14:18:11.848Z,811.83
2018-07-26T14:20:39.091Z,817.63
2018-07-26T14:23:06.306Z,836.63
2018-07-26T14:25:33.523Z,797.50
2018-07-26T14:28:00.742Z,816.57
2018-07-26T14:30:27.963Z,814.83
2018-07-26T14:32:55.180Z,825.57
2018-07-26T14:35:22.403Z,804.70
2018-07-26T14:37:49.618Z,815.47
2018-07-26T14:40:16.839Z,831.20
2018-07-26T14:42:44.066Z,810.53
2018-07-26T14:45:11.292Z,823.97
2018-07-26T14:47:38.516Z,835.13
2018-07-26T14:50:05.758Z,809.70
2018-07-26T14:52:32.981Z,843.93
2018-07-26T14:55:00.167Z,822.47
2018-07-26T14:57:27.366Z,845.17
2018-07-26T14:59:54.724Z,810.90
2018-07-26T15:02:21.963Z,829.10
2018-07-26T15:04:49.166Z,802.50
2018-07-26T15:07:16.375Z,819.83
2018-07-26T15:09:43.623Z,800.37
2018-07-26T15:12:10.795Z,813.00
2018-07-26T15:14:38.010Z,771.07
2018-07-26T15:17:05.307Z,793.23
2018-07-26T15:19:32.511Z,771.17
2018-07-26T15:21:59.714Z,795.77
2018-07-26T15:24:28.000Z,773.67
2018-07-26T15:26:55.186Z,787.93
2018-07-26T15:29:22.395Z,770.13
2018-07-26T15:31:49.674Z,770.17
2018-07-26T15:34:16.862Z,771.47
2018-07-26T15:36:44.057Z,766.93
2018-07-26T15:39:11.470Z,768.70
2018-07-26T15:41:43.707Z,756.07
2018-07-26T15:44:11.726Z,775.87
2018-07-26T15:46:39.129Z,755.53
2018-07-26T15:49:06.575Z,761.40
2018-07-26T15:51:33.822Z,770.80
2018-07-26T15:54:00.995Z,779.53
2018-07-26T15:56:28.194Z,757.60
2018-07-26T15:58:55.455Z,763.30
2018-07-26T16:01:22.766Z,771.07
2018-07-26T16:03:49.959Z,759.23
2018-07-26T16:06:17.170Z,782.03
2018-07-26T16:08:44.376Z,773.40
2018-07-26T16:11:11.608Z,780.10
2018-07-26T16:13:38.847Z,777.00
2018-07-26T16:16:06.059Z,763.37
2018-07-26T16:18:33.279Z,774.93
2018-07-26T16:21:00.501Z,746.03
2018-07-26T16:23:27.965Z,763.77
2018-07-26T16:25:55.180Z,765.90
2018-07-26T16:28:22.395Z,776.00
2018-07-26T16:30:49.781Z,783.13
2018-07-26T16:33:17.079Z,740.27
2018-07-26T16:35:44.266Z,774.00
2018-07-26T16:38:11.525Z,763.27
2018-07-26T16:40:38.736Z,742.53
2018-07-26T16:43:05.954Z,746.20
2018-07-26T16:45:33.174Z,753.07
2018-07-26T16:48:00.367Z,740.30
2018-07-26T16:50:27.579Z,767.03
2018-07-26T16:52:54.843Z,746.93
2018-07-26T16:55:22.308Z,772.40
2018-07-26T16:57:49.638Z,759.90
2018-07-26T17:00:16.876Z,795.67
2018-07-26T17:02:44.088Z,755.03
2018-07-26T17:05:11.334Z,762.27
2018-07-26T17:07:38.570Z,754.97
2018-07-26T17:10:06.291Z,761.27
2018-07-26T17:12:33.601Z,745.53
2018-07-26T17:15:00.896Z,761.77
2018-07-26T17:17:28.107Z,770.63
2018-07-26T17:19:55.322Z,739.33
2018-07-26T17:22:22.527Z,761.80
2018-07-26T17:24:49.844Z,742.83
2018-07-26T17:27:17.095Z,748.63
2018-07-26T17:29:44.304Z,718.53
2018-07-26T17:32:11.564Z,744.87
2018-07-26T17:34:38.779Z,726.67
2018-07-26T17:37:05.986Z,736.70
2018-07-26T17:39:33.214Z,728.53
2018-07-26T17:42:00.423Z,698.23
2018-07-26T17:44:27.732Z,682.33
2018-07-26T17:46:55.007Z,691.83
2018-07-26T17:49:22.272Z,671.37
2018-07-26T17:51:49.491Z,672.03
2018-07-26T17:54:16.950Z,637.50
2018-07-26T17:56:44.197Z,652.80
2018-07-26T17:59:11.513Z,637.10
2018-07-26T18:01:38.748Z,618.50
2018-07-26T18:04:06.079Z,616.97
2018-07-26T18:06:33.311Z,580.83
2018-07-26T18:09:00.521Z,572.43
2018-07-26T18:11:27.746Z,576.17
2018-07-26T18:13:54.997Z,575.33
2018-07-26T18:16:22.259Z,535.13
2018-07-26T18:18:49.462Z,536.53
2018-07-26T18:21:16.701Z,528.07
2018-07-26T18:23:43.907Z,509.67
2018-07-26T18:26:11.169Z,538.10
2018-07-26T18:28:38.657Z,542.27
2018-07-26T18:31:05.905Z,538.43
2018-07-26T18:33:33.130Z,499.33
2018-07-26T18:36:00.344Z,506.63
2018-07-26T18:38:27.603Z,480.67
2018-07-26T18:40:54.760Z,498.33
2018-07-26T18:43:21.972Z,451.03
2018-07-26T18:45:49.209Z,473.90
2018-07-26T18:48:16.445Z,452.83
2018-07-26T18:50:43.667Z,453.20
2018-07-26T18:53:10.900Z,472.37
2018-07-26T18:55:38.155Z,435.80
2018-07-26T18:58:05.382Z,455.07
2018-07-26T19:00:32.604Z,432.03
2018-07-26T19:03:00.594Z,448.03
2018-07-26T19:05:27.812Z,422.50
2018-07-26T19:07:55.014Z,415.47
2018-07-26T19:10:22.218Z,451.07
2018-07-26T19:12:49.426Z,416.33
2018-07-26T19:15:16.798Z,419.13
2018-07-26T19:17:44.003Z,450.07
2018-07-26T19:20:11.540Z,409.93
2018-07-26T19:22:38.772Z,411.53
2018-07-26T19:25:06.870Z,414.07
2018-07-26T19:27:34.295Z,416.00
2018-07-26T19:30:01.526Z,399.70
2018-07-26T19:32:28.728Z,431.03
2018-07-26T19:34:56.034Z,400.33
2018-07-26T19:37:23.300Z,405.23
2018-07-26T19:39:50.563Z,425.87
2018-07-26T19:42:17.806Z,401.80
2018-07-26T19:44:45.040Z,423.27
2018-07-26T19:47:12.381Z,408.00
2018-07-26T19:49:39.581Z,380.93
2018-07-26T19:52:07.388Z,392.00
2018-07-26T19:54:34.643Z,415.20
2018-07-26T19:57:01.864Z,399.40
2018-07-26T19:59:29.067Z,387.30
2018-07-26T20:01:56.287Z,385.53
2018-07-26T20:04:23.616Z,377.63
2018-07-26T20:06:50.833Z,378.03
2018-07-26T20:09:18.078Z,381.77
2018-07-26T20:11:45.274Z,370.10
2018-07-26T20:14:12.475Z,371.33
2018-07-26T20:16:39.887Z,384.67
2018-07-26T20:19:07.175Z,364.47
2018-07-26T20:21:34.458Z,400.40
2018-07-26T20:24:01.682Z,397.97
2018-07-26T20:26:28.902Z,402.77
2018-07-26T20:28:56.099Z,382.13
2018-07-26T20:31:23.529Z,398.67
2018-07-26T20:33:50.735Z,387.37
2018-07-26T20:36:18.012Z,390.73
2018-07-26T20:38:45.359Z,390.60
2018-07-26T20:41:12.591Z,391.83
2018-07-26T20:43:39.803Z,372.00
2018-07-26T20:46:07.057Z,402.80
2018-07-26T20:48:34.321Z,390.63
2018-07-26T20:51:01.507Z,370.10
2018-07-26T20:53:28.734Z,372.33
2018-07-26T20:55:55.986Z,386.83
2018-07-26T20:58:23.192Z,371.57
2018-07-26T21:00:50.420Z,392.90
2018-07-26T21:03:17.635Z,394.97
2018-07-26T21:05:44.830Z,420.60
2018-07-26T21:08:12.047Z,360.93
2018-07-26T21:10:39.256Z,371.23
2018-07-26T21:13:06.515Z,387.57
2018-07-26T21:15:33.880Z,388.13
2018-07-26T21:18:01.094Z,387.07
2018-07-26T21:20:28.295Z,353.73
2018-07-26T21:22:55.521Z,376.13
2018-07-26T21:25:22.745Z,376.43
2018-07-26T21:27:49.939Z,360.60
2018-07-26T21:30:17.167Z,394.17
2018-07-26T21:33:07.817Z,392.77
2018-07-26T21:35:35.017Z,386.57
2018-07-26T21:38:02.221Z,368.47
2018-07-26T21:40:29.416Z,362.33
2018-07-26T21:42:56.614Z,389.93
2018-07-26T21:45:23.812Z,368.90
2018-07-26T21:47:51.026Z,358.27
2018-07-26T21:50:18.222Z,388.07
2018-07-26T21:52:45.429Z,338.43
2018-07-26T21:55:12.630Z,359.73
2018-07-26T21:57:39.828Z,334.00
2018-07-26T22:00:08.507Z,335.97
2018-07-26T22:02:35.851Z,357.27
2018-07-26T22:05:03.322Z,360.63
2018-07-26T22:07:30.528Z,346.97
2018-07-26T22:09:57.715Z,344.93
2018-07-26T22:12:25.095Z,327.57
2018-07-26T22:14:52.299Z,369.77
2018-07-26T22:17:19.508Z,349.83
2018-07-26T22:19:46.709Z,349.63
2018-07-26T22:22:13.924Z,364.07
2018-07-26T22:24:41.173Z,330.73
2018-07-26T22:27:08.380Z,340.13
2018-07-26T22:29:35.584Z,320.93
2018-07-26T22:32:02.814Z,322.23
2018-07-26T22:34:30.014Z,323.50
2018-07-26T22:36:57.234Z,348.53
2018-07-26T22:39:24.449Z,336.83
2018-07-26T22:41:51.656Z,347.43
2018-07-26T22:44:18.839Z,337.27
2018-07-26T22:46:46.023Z,319.23
2018-07-26T22:49:13.225Z,336.63
2018-07-26T22:51:40.444Z,317.27
2018-07-26T22:54:07.686Z,350.93
2018-07-26T22:56:34.927Z,319.33
2018-07-26T22:59:02.343Z,315.87
2018-07-26T23:01:29.556Z,335.30
2018-07-26T23:03:56.979Z,330.13
2018-07-26T23:06:24.184Z,337.20
2018-07-26T23:08:51.528Z,302.13
2018-07-26T23:11:18.750Z,307.03
2018-07-26T23:13:45.963Z,308.47
2018-07-26T23:16:13.176Z,302.47
2018-07-26T23:18:40.395Z,296.03
2018-07-26T23:21:07.598Z,316.73
2018-07-26T23:23:34.819Z,319.33
2018-07-26T23:26:02.008Z,306.40
2018-07-26T23:28:29.206Z,316.63
2018-07-26T23:30:56.401Z,310.33
2018-07-26T23:33:23.595Z,310.93
2018-07-26T23:35:50.813Z,299.40
2018-07-26T23:38:18.011Z,300.60
2018-07-26T23:40:45.244Z,299.97
2018-07-26T23:43:12.460Z,323.43
2018-07-26T23:45:39.824Z,306.03
2018-07-26T23:48:07.030Z,335.83
2018-07-26T23:50:34.231Z,302.60
2018-07-26T23:53:01.434Z,317.40
2018-07-26T23:55:28.632Z,300.00
2018-07-26T23:57:55.848Z,311.80
